Time;durP1;ratioP1;P1;durP2;ratioP2;P2;SDS_P1;SDS_P2;PMS_P1;PMS_P2;Temp;Humidity;BMP_temperature;BMP_pressure;BME280_temperature;BME280_humidity;BME280_pressure;Samples;Min_cycle;Max_cycle;Signal;HPM_P1;HPM_P2
2024/01/26 00:00:03;;;;;;;3.70;0.80;;;;;;;;;;6316596;28;20036;-82
2024/01/26 00:03:04;;;;;;;1.85;0.70;;;;;;;;;;6319113;28;20033;-81
2024/01/26 00:06:04;;;;;;;1.57;0.80;;;;;;;;;;6309155;28;20264;-81
2024/01/26 00:09:09;;;;;;;1.90;0.70;;;;;;;;;;6296993;28;20032;-82
2024/01/26 00:12:09;;;;;;;1.83;0.70;;;;;;;;;;6312076;28;20020;-82
2024/01/26 00:15:10;;;;;;;2.17;0.60;;;;;;;;;;6292838;28;20049;-81
2024/01/26 00:18:10;;;;;;;1.47;0.67;;;;;;;;;;6288344;28;20020;-80
2024/01/26 00:21:10;;;;;;;1.77;0.70;;;;;;;;;;6310448;28;20484;-80
2024/01/26 00:24:11;;;;;;;2.57;0.80;;;;;;;;;;6310734;28;20373;-80
2024/01/26 00:27:11;;;;;;;3.70;0.70;;;;;;;;;;6316913;28;20024;-80
2024/01/26 00:30:11;;;;;;;1.93;0.63;;;;;;;;;;6305370;28;20465;-81
2024/01/26 00:33:11;;;;;;;4.27;0.70;;;;;;;;;;6321636;28;20439;-80
2024/01/26 00:36:12;;;;;;;2.47;0.87;;;;;;;;;;6313843;28;20031;-80
2024/01/26 00:39:13;;;;;;;1.10;0.60;;;;;;;;;;6313610;28;20027;-80
2024/01/26 00:42:13;;;;;;;2.73;0.60;;;;;;;;;;6315884;28;20431;-80
2024/01/26 00:45:13;;;;;;;2.77;0.90;;;;;;;;;;6318290;28;20050;-80
2024/01/26 00:48:14;;;;;;;2.33;0.80;;;;;;;;;;6314294;28;20024;-80
2024/01/26 00:51:14;;;;;;;1.77;0.73;;;;;;;;;;6322843;28;20027;-81
2024/01/26 00:54:14;;;;;;;1.80;0.70;;;;;;;;;;6321885;28;20036;-80
2024/01/26 00:57:14;;;;;;;1.50;0.50;;;;;;;;;;6322494;28;20024;-80
2024/01/26 01:00:15;;;;;;;0.87;0.50;;;;;;;;;;6314780;28;20032;-80
2024/01/26 01:03:16;;;;;;;2.07;0.70;;;;;;;;;;6288177;28;20485;-82
2024/01/26 01:06:16;;;;;;;1.90;0.90;;;;;;;;;;6315483;28;20047;-85
2024/01/26 01:09:16;;;;;;;2.73;1.03;;;;;;;;;;6349247;28;20020;-86
2024/01/26 01:12:17;;;;;;;2.13;0.80;;;;;;;;;;6346498;28;20463;-86
2024/01/26 01:15:17;;;;;;;2.10;0.70;;;;;;;;;;6351214;28;20104;-86
2024/01/26 01:18:17;;;;;;;1.93;0.80;;;;;;;;;;6346729;28;20139;-86
2024/01/26 01:21:18;;;;;;;3.33;0.70;;;;;;;;;;6340547;28;20023;-86
2024/01/26 01:24:18;;;;;;;3.87;0.70;;;;;;;;;;6334004;28;20103;-86
2024/01/26 01:27:18;;;;;;;3.70;0.83;;;;;;;;;;6330012;28;20027;-86
2024/01/26 01:30:19;;;;;;;0.90;0.60;;;;;;;;;;6343803;28;20023;-86
2024/01/26 01:33:19;;;;;;;2.53;0.83;;;;;;;;;;6337466;28;20031;-86
2024/01/26 01:36:19;;;;;;;1.43;0.50;;;;;;;;;;6344055;28;20019;-86
2024/01/26 01:39:20;;;;;;;3.50;0.73;;;;;;;;;;6326871;28;20392;-86
2024/01/26 01:42:20;;;;;;;2.03;0.67;;;;;;;;;;6337899;28;20413;-86
2024/01/26 01:45:21;;;;;;;2.23;0.60;;;;;;;;;;6324623;28;20024;-86
2024/01/26 01:48:21;;;;;;;2.78;0.77;;;;;;;;;;6322834;28;20027;-86
2024/01/26 01:51:22;;;;;;;2.30;0.60;;;;;;;;;;6345076;28;20471;-86
2024/01/26 01:54:23;;;;;;;0.97;0.53;;;;;;;;;;6346639;28;20434;-86
2024/01/26 01:57:25;;;;;;;1.88;0.90;;;;;;;;;;6319781;28;20012;-85
2024/01/26 02:00:25;;;;;;;2.80;0.68;;;;;;;;;;6344916;28;20107;-85
2024/01/26 02:03:26;;;;;;;2.53;0.63;;;;;;;;;;6324553;28;20498;-86
2024/01/26 02:06:26;;;;;;;2.27;0.63;;;;;;;;;;6344351;28;20040;-85
2024/01/26 02:09:27;;;;;;;1.37;0.67;;;;;;;;;;6338563;28;20008;-86
2024/01/26 02:12:28;;;;;;;1.52;0.65;;;;;;;;;;6339153;28;20027;-85
2024/01/26 02:15:28;;;;;;;2.55;0.70;;;;;;;;;;6340993;28;20384;-86
2024/01/26 02:18:28;;;;;;;1.50;0.77;;;;;;;;;;6332666;28;20028;-80
2024/01/26 02:21:28;;;;;;;2.43;0.60;;;;;;;;;;6315171;28;20027;-80
2024/01/26 02:24:29;;;;;;;2.43;0.70;;;;;;;;;;6338426;28;20457;-83
2024/01/26 02:27:30;;;;;;;3.13;0.63;;;;;;;;;;6309647;28;20396;-82
2024/01/26 02:30:33;;;;;;;2.50;0.90;;;;;;;;;;6346224;28;20047;-80
2024/01/26 02:33:33;;;;;;;2.20;0.70;;;;;;;;;;6341478;28;20124;-81
2024/01/26 02:36:35;;;;;;;1.53;0.67;;;;;;;;;;6344710;28;20028;-80
2024/01/26 02:39:36;;;;;;;1.73;0.68;;;;;;;;;;6332372;28;20027;-80
2024/01/26 02:42:36;;;;;;;3.00;0.90;;;;;;;;;;6342493;28;20023;-80
2024/01/26 02:45:36;;;;;;;2.87;0.73;;;;;;;;;;6346746;28;20053;-80
2024/01/26 02:48:37;;;;;;;4.27;0.70;;;;;;;;;;6345127;28;20383;-80
2024/01/26 02:51:38;;;;;;;1.85;0.40;;;;;;;;;;6342037;28;20027;-80
2024/01/26 02:54:38;;;;;;;1.38;0.60;;;;;;;;;;6333933;28;20031;-80
2024/01/26 02:57:39;;;;;;;2.80;0.60;;;;;;;;;;6339891;28;20024;-80
2024/01/26 03:00:39;;;;;;;3.67;0.80;;;;;;;;;;6339743;28;20510;-80
2024/01/26 03:03:40;;;;;;;1.13;0.50;;;;;;;;;;6344897;28;20703;-80
2024/01/26 03:06:41;;;;;;;2.03;0.50;;;;;;;;;;6324133;28;20055;-80
2024/01/26 03:09:41;;;;;;;2.30;0.70;;;;;;;;;;6316575;28;20028;-80
2024/01/26 03:12:41;;;;;;;2.70;0.73;;;;;;;;;;6309985;28;20008;-80
2024/01/26 03:15:42;;;;;;;1.57;0.60;;;;;;;;;;6308636;28;20031;-80
2024/01/26 03:18:42;;;;;;;1.77;0.80;;;;;;;;;;6307336;28;20032;-80
2024/01/26 03:21:42;;;;;;;1.70;0.63;;;;;;;;;;6311887;28;20028;-81
2024/01/26 03:24:43;;;;;;;3.10;0.77;;;;;;;;;;6312853;28;20024;-82
2024/01/26 03:27:43;;;;;;;2.30;0.80;;;;;;;;;;6288473;28;20369;-80
2024/01/26 03:30:44;;;;;;;2.33;0.50;;;;;;;;;;6321634;28;20020;-80
2024/01/26 03:33:45;;;;;;;2.37;0.80;;;;;;;;;;6315162;28;20503;-80
2024/01/26 03:36:45;;;;;;;2.30;0.70;;;;;;;;;;6321672;28;20028;-86
2024/01/26 03:39:45;;;;;;;2.00;0.70;;;;;;;;;;6300179;28;20477;-86
2024/01/26 03:42:46;;;;;;;1.70;0.60;;;;;;;;;;6314621;28;20035;-85
2024/01/26 03:45:46;;;;;;;2.00;0.60;;;;;;;;;;6300607;28;20056;-85
2024/01/26 03:48:46;;;;;;;2.07;0.67;;;;;;;;;;6318889;28;20028;-86
2024/01/26 03:51:46;;;;;;;2.40;0.60;;;;;;;;;;6307668;28;20012;-84
2024/01/26 03:54:47;;;;;;;2.30;0.70;;;;;;;;;;6320146;28;20024;-85
2024/01/26 03:57:47;;;;;;;1.83;0.70;;;;;;;;;;6314645;28;20024;-85
2024/01/26 04:00:47;;;;;;;1.80;0.70;;;;;;;;;;6311976;28;20465;-86
2024/01/26 04:03:48;;;;;;;2.33;0.73;;;;;;;;;;6307626;28;20019;-85
2024/01/26 04:06:48;;;;;;;1.33;0.50;;;;;;;;;;6320547;28;20161;-86
2024/01/26 04:09:48;;;;;;;1.13;0.60;;;;;;;;;;6316444;28;20353;-85
2024/01/26 04:12:48;;;;;;;2.90;0.67;;;;;;;;;;6307022;28;20017;-86
2024/01/26 04:15:49;;;;;;;2.93;0.87;;;;;;;;;;6303166;28;20036;-86
2024/01/26 04:18:49;;;;;;;1.40;0.67;;;;;;;;;;6306813;28;20035;-86
2024/01/26 04:21:51;;;;;;;1.97;0.77;;;;;;;;;;6319655;28;20051;-87
2024/01/26 04:24:52;;;;;;;2.08;0.63;;;;;;;;;;6314558;28;20430;-86
2024/01/26 04:27:52;;;;;;;3.03;0.70;;;;;;;;;;6315031;28;21681;-86
2024/01/26 04:30:53;;;;;;;2.10;0.83;;;;;;;;;;6323377;28;20381;-86
2024/01/26 04:33:53;;;;;;;3.77;0.87;;;;;;;;;;6299662;28;20036;-86
2024/01/26 04:36:54;;;;;;;1.80;0.67;;;;;;;;;;6315396;28;20016;-86
2024/01/26 04:39:55;;;;;;;2.23;0.70;;;;;;;;;;6315753;28;20024;-85
2024/01/26 04:42:55;;;;;;;3.08;0.93;;;;;;;;;;6316677;28;20392;-84
2024/01/26 04:45:55;;;;;;;3.20;0.70;;;;;;;;;;6304272;28;20032;-81
2024/01/26 04:48:56;;;;;;;2.10;0.70;;;;;;;;;;6311938;28;20065;-80
2024/01/26 04:51:56;;;;;;;2.23;0.67;;;;;;;;;;6304746;28;20488;-80
2024/01/26 04:54:56;;;;;;;2.67;0.87;;;;;;;;;;6313522;28;20392;-80
2024/01/26 04:57:56;;;;;;;4.40;1.00;;;;;;;;;;6299348;28;20430;-81
2024/01/26 05:00:57;;;;;;;2.93;0.83;;;;;;;;;;6306537;28;20023;-80
2024/01/26 05:03:57;;;;;;;4.07;0.70;;;;;;;;;;6303981;28;20017;-81
2024/01/26 05:06:57;;;;;;;1.60;0.80;;;;;;;;;;6312932;28;20055;-80
2024/01/26 05:09:57;;;;;;;1.67;0.63;;;;;;;;;;6340001;28;20477;-81
2024/01/26 05:12:58;;;;;;;2.30;0.70;;;;;;;;;;6331314;28;20024;-80
2024/01/26 05:15:58;;;;;;;1.33;0.60;;;;;;;;;;6311516;28;20115;-80
2024/01/26 05:18:58;;;;;;;1.53;0.50;;;;;;;;;;6330861;28;20097;-80
2024/01/26 05:21:59;;;;;;;3.07;0.80;;;;;;;;;;6346119;28;20024;-80
2024/01/26 05:24:59;;;;;;;1.55;0.60;;;;;;;;;;6341231;28;20031;-81
2024/01/26 05:27:59;;;;;;;1.40;0.67;;;;;;;;;;6324403;28;20034;-80
2024/01/26 05:31:00;;;;;;;1.80;0.70;;;;;;;;;;6322955;28;20024;-81
2024/01/26 05:34:00;;;;;;;1.53;0.63;;;;;;;;;;6326583;28;20026;-80
2024/01/26 05:37:00;;;;;;;2.67;0.87;;;;;;;;;;6333061;28;20055;-80
2024/01/26 05:40:03;;;;;;;1.93;0.90;;;;;;;;;;6342858;28;20068;-80
2024/01/26 05:43:04;;;;;;;4.45;0.75;;;;;;;;;;6326237;28;20494;-79
2024/01/26 05:46:04;;;;;;;1.90;0.70;;;;;;;;;;6338779;28;20027;-80
2024/01/26 05:49:04;;;;;;;1.63;0.70;;;;;;;;;;6311812;28;20055;-80
2024/01/26 05:52:05;;;;;;;2.57;1.00;;;;;;;;;;6335682;28;20031;-80
2024/01/26 05:55:05;;;;;;;3.27;1.10;;;;;;;;;;6337764;28;20039;-82
2024/01/26 05:58:05;;;;;;;3.20;0.90;;;;;;;;;;6338776;28;20397;-85
2024/01/26 06:01:06;;;;;;;2.10;0.80;;;;;;;;;;6328618;28;20020;-86
2024/01/26 06:04:06;;;;;;;2.37;0.80;;;;;;;;;;6330435;28;20051;-86
2024/01/26 06:07:07;;;;;;;2.97;0.80;;;;;;;;;;6342055;28;20044;-86
2024/01/26 06:10:07;;;;;;;2.03;0.80;;;;;;;;;;6348371;28;20070;-85
2024/01/26 06:13:08;;;;;;;3.63;0.90;;;;;;;;;;6347632;28;20031;-85
2024/01/26 06:16:11;;;;;;;3.47;0.80;;;;;;;;;;6347979;28;20058;-87
2024/01/26 06:19:12;;;;;;;1.67;0.70;;;;;;;;;;6340448;28;20020;-86
2024/01/26 06:22:12;;;;;;;2.63;0.73;;;;;;;;;;6319544;28;20020;-86
2024/01/26 06:25:12;;;;;;;3.07;1.00;;;;;;;;;;6352234;28;20016;-85
2024/01/26 06:28:13;;;;;;;2.00;0.77;;;;;;;;;;6344658;28;20027;-86
2024/01/26 06:31:13;;;;;;;2.87;0.87;;;;;;;;;;6351086;28;20020;-85
2024/01/26 06:34:13;;;;;;;2.53;0.87;;;;;;;;;;6346293;28;20456;-85
2024/01/26 06:37:13;;;;;;;2.43;1.00;;;;;;;;;;6337579;28;20023;-85
2024/01/26 06:40:14;;;;;;;3.40;1.00;;;;;;;;;;6336092;28;20028;-85
2024/01/26 06:43:16;;;;;;;1.70;0.90;;;;;;;;;;6316139;28;20030;-85
2024/01/26 06:46:21;;;;;;;2.17;1.00;;;;;;;;;;6335362;28;20032;-86
2024/01/26 06:49:21;;;;;;;3.63;0.85;;;;;;;;;;6341319;28;20064;-86
2024/01/26 06:52:22;;;;;;;3.77;1.13;;;;;;;;;;6349354;28;20015;-86
2024/01/26 06:55:22;;;;;;;3.13;1.00;;;;;;;;;;6337509;28;20039;-86
2024/01/26 06:58:22;;;;;;;2.73;0.87;;;;;;;;;;6347326;28;20032;-86
2024/01/26 07:01:22;;;;;;;3.10;1.20;;;;;;;;;;6339305;28;20027;-88
2024/01/26 07:04:23;;;;;;;2.17;1.10;;;;;;;;;;6335836;28;20566;-85
2024/01/26 07:07:23;;;;;;;3.70;1.10;;;;;;;;;;6333484;28;20044;-85
2024/01/26 07:10:24;;;;;;;3.20;1.10;;;;;;;;;;6348409;28;20139;-87
2024/01/26 07:13:24;;;;;;;2.13;0.85;;;;;;;;;;6349380;28;20031;-86
2024/01/26 07:16:24;;;;;;;3.50;0.87;;;;;;;;;;6340265;28;20461;-86
2024/01/26 07:19:24;;;;;;;2.97;1.00;;;;;;;;;;6328784;28;20028;-86
2024/01/26 07:22:25;;;;;;;4.80;0.97;;;;;;;;;;6345063;28;20027;-84
2024/01/26 07:25:25;;;;;;;3.07;0.90;;;;;;;;;;6346426;28;20068;-85
2024/01/26 07:28:25;;;;;;;2.33;1.00;;;;;;;;;;6337760;28;20054;-80
2024/01/26 07:31:25;;;;;;;1.63;0.73;;;;;;;;;;6333305;28;20668;-80
2024/01/26 07:34:26;;;;;;;3.10;1.23;;;;;;;;;;6345817;28;20047;-80
2024/01/26 07:37:26;;;;;;;3.43;1.10;;;;;;;;;;6336111;28;20032;-79
2024/01/26 07:40:26;;;;;;;2.27;1.03;;;;;;;;;;6332744;28;20028;-79
2024/01/26 07:43:27;;;;;;;5.00;1.50;;;;;;;;;;6342074;28;20031;-79
2024/01/26 07:46:27;;;;;;;5.10;1.33;;;;;;;;;;6338977;28;20030;-79
2024/01/26 07:49:27;;;;;;;2.58;1.10;;;;;;;;;;5976831;28;10000695;-79
2024/01/26 07:52:27;;;;;;;5.13;1.47;;;;;;;;;;6316108;28;20468;-79
2024/01/26 07:55:28;;;;;;;4.43;1.30;;;;;;;;;;6342675;27;20027;-79
2024/01/26 07:58:28;;;;;;;3.13;1.10;;;;;;;;;;6340010;27;20077;-79
2024/01/26 08:01:28;;;;;;;2.17;1.30;;;;;;;;;;6338583;28;20037;-79
2024/01/26 08:04:28;;;;;;;3.87;1.57;;;;;;;;;;6345908;28;20028;-79
2024/01/26 08:07:29;;;;;;;3.73;1.27;;;;;;;;;;6347762;28;20521;-79
2024/01/26 08:10:29;;;;;;;3.80;1.37;;;;;;;;;;6348580;28;20026;-79
2024/01/26 08:13:29;;;;;;;4.60;1.60;;;;;;;;;;6327063;28;20409;-79
2024/01/26 08:16:30;;;;;;;2.87;1.30;;;;;;;;;;6344029;28;20011;-78
2024/01/26 08:19:30;;;;;;;2.70;1.13;;;;;;;;;;6343652;28;20390;-76
2024/01/26 08:22:30;;;;;;;7.57;1.20;;;;;;;;;;6347140;28;20055;-80
2024/01/26 08:25:31;;;;;;;2.33;1.23;;;;;;;;;;6329783;28;20024;-79
2024/01/26 08:28:32;;;;;;;3.60;1.30;;;;;;;;;;6347780;28;20103;-78
2024/01/26 08:31:32;;;;;;;5.53;1.73;;;;;;;;;;6348258;28;20353;-79
2024/01/26 08:34:33;;;;;;;2.87;1.40;;;;;;;;;;6342191;28;20019;-80
2024/01/26 08:37:33;;;;;;;2.70;1.17;;;;;;;;;;6346009;28;20026;-79
2024/01/26 08:40:33;;;;;;;4.77;1.27;;;;;;;;;;6331682;28;20042;-79
2024/01/26 08:43:33;;;;;;;3.83;1.50;;;;;;;;;;6345395;28;20133;-79
2024/01/26 08:46:34;;;;;;;3.73;1.70;;;;;;;;;;6340642;28;20376;-79
2024/01/26 08:49:34;;;;;;;4.77;1.43;;;;;;;;;;6336816;28;20076;-80
2024/01/26 08:52:34;;;;;;;2.67;1.20;;;;;;;;;;6347760;28;20031;-80
2024/01/26 08:55:35;;;;;;;3.27;1.40;;;;;;;;;;6339758;28;20429;-80
2024/01/26 08:58:36;;;;;;;2.60;1.10;;;;;;;;;;6346477;28;20460;-79
2024/01/26 09:01:37;;;;;;;;;;;;;;;;;;6340181;28;20103;-80
2024/01/26 09:04:37;;;;;;;3.20;1.03;;;;;;;;;;6311494;28;19907;-77
2024/01/26 09:07:38;;;;;;;3.90;1.30;;;;;;;;;;6323738;28;20040;-79
2024/01/26 09:10:38;;;;;;;2.73;1.30;;;;;;;;;;6339991;28;20032;-79
2024/01/26 09:13:38;;;;;;;4.33;1.20;;;;;;;;;;6332520;28;20073;-79
2024/01/26 09:16:38;;;;;;;2.50;1.17;;;;;;;;;;6343598;28;20066;-79
2024/01/26 09:19:41;;;;;;;3.07;1.17;;;;;;;;;;6337940;28;20028;-78
2024/01/26 09:22:42;;;;;;;3.60;1.10;;;;;;;;;;6326419;28;20023;-79
2024/01/26 09:25:42;;;;;;;2.83;1.10;;;;;;;;;;6341070;28;20444;-79
2024/01/26 09:28:43;;;;;;;4.93;1.30;;;;;;;;;;6322889;28;20159;-80
2024/01/26 09:31:43;;;;;;;3.20;1.03;;;;;;;;;;6335244;28;20094;-81
2024/01/26 09:34:44;;;;;;;3.57;1.40;;;;;;;;;;6336853;28;20024;-81
2024/01/26 09:37:44;;;;;;;1.38;1.00;;;;;;;;;;6339672;28;20012;-82
2024/01/26 09:40:44;;;;;;;3.13;0.97;;;;;;;;;;6331036;28;20388;-81
2024/01/26 09:43:45;;;;;;;2.80;1.07;;;;;;;;;;6341001;28;20011;-82
2024/01/26 09:46:45;;;;;;;2.53;0.90;;;;;;;;;;6335513;28;20121;-82
2024/01/26 09:49:51;;;;;;;2.27;1.13;;;;;;;;;;6331475;28;20027;-82
2024/01/26 09:52:52;;;;;;;2.67;1.20;;;;;;;;;;6329303;28;20066;-82
2024/01/26 09:55:53;;;;;;;2.55;1.02;;;;;;;;;;6323425;28;20027;-82
2024/01/26 09:58:53;;;;;;;2.40;1.00;;;;;;;;;;6340563;28;20698;-81
2024/01/26 10:01:53;;;;;;;3.23;1.10;;;;;;;;;;6335222;28;20023;-82
2024/01/26 10:04:54;;;;;;;2.70;1.27;;;;;;;;;;6311684;28;20389;-82
2024/01/26 10:07:55;;;;;;;2.05;1.00;;;;;;;;;;6334150;28;20429;-82
2024/01/26 10:10:55;;;;;;;2.87;1.10;;;;;;;;;;6327285;28;20032;-82
2024/01/26 10:13:56;;;;;;;3.13;1.10;;;;;;;;;;6323039;28;20046;-82
2024/01/26 10:16:57;;;;;;;2.53;0.90;;;;;;;;;;6339314;28;20066;-82
2024/01/26 10:20:13;;;;;;;2.97;1.08;;;;;;;;;;5975204;28;10000338;-81
2024/01/26 10:23:13;;;;;;;1.23;0.80;;;;;;;;;;6337619;28;20034;-83
2024/01/26 10:26:14;;;;;;;2.13;0.87;;;;;;;;;;6340932;28;20452;-83
2024/01/26 10:29:14;;;;;;;2.75;1.08;;;;;;;;;;6338901;28;20071;-83
2024/01/26 10:32:15;;;;;;;2.27;1.10;;;;;;;;;;6313765;28;20468;-80
2024/01/26 10:35:16;;;;;;;2.30;1.10;;;;;;;;;;6340668;28;20016;-81
2024/01/26 10:38:17;;;;;;;2.22;1.10;;;;;;;;;;6336585;28;20083;-81
2024/01/26 10:41:19;;;;;;;2.27;0.80;;;;;;;;;;6339899;28;20081;-82
2024/01/26 10:44:20;;;;;;;2.25;0.98;;;;;;;;;;6339758;28;20028;-81
2024/01/26 10:47:21;;;;;;;1.20;0.85;;;;;;;;;;6339203;28;20031;-80
2024/01/26 10:50:21;;;;;;;1.77;0.80;;;;;;;;;;6315725;28;20046;-82
2024/01/26 10:53:21;;;;;;;2.00;0.67;;;;;;;;;;6332822;28;20016;-83
2024/01/26 10:56:22;;;;;;;2.03;0.90;;;;;;;;;;6329564;28;20051;-81
2024/01/26 10:59:23;;;;;;;2.13;0.80;;;;;;;;;;6346591;28;20038;-81
2024/01/26 11:02:27;;;;;;;1.48;1.05;;;;;;;;;;6350144;28;20028;-81
2024/01/26 11:05:27;;;;;;;3.55;1.15;;;;;;;;;;6343139;28;20051;-82
2024/01/26 11:08:29;;;;;;;2.00;0.90;;;;;;;;;;6345928;28;20377;-80
2024/01/26 11:11:32;;;;;;;2.85;1.30;;;;;;;;;;6348839;28;20026;-79
2024/01/26 11:14:33;;;;;;;4.25;1.35;;;;;;;;;;6341484;28;20023;-78
2024/01/26 11:17:43;;;;;;;3.43;1.30;;;;;;;;;;6338117;28;20024;-78
2024/01/26 11:20:46;;;;;;;3.15;1.30;;;;;;;;;;6339718;28;20063;-79
2024/01/26 11:23:47;;;;;;;4.53;1.30;;;;;;;;;;6337447;28;20016;-79
2024/01/26 11:26:57;;;;;;;5.53;1.30;;;;;;;;;;6336615;28;20023;-79
2024/01/26 11:29:58;;;;;;;3.83;1.30;;;;;;;;;;6351164;28;20020;-78
2024/01/26 11:32:58;;;;;;;3.10;1.37;;;;;;;;;;6342140;28;20043;-79
2024/01/26 11:36:03;;;;;;;2.20;1.17;;;;;;;;;;6350100;28;20472;-79
2024/01/26 11:39:04;;;;;;;1.80;1.23;;;;;;;;;;6322119;28;20456;-79
2024/01/26 11:42:09;;;;;;;3.47;1.35;;;;;;;;;;6335769;28;20030;-79
2024/01/26 11:45:13;;;;;;;3.72;1.65;;;;;;;;;;6321956;28;20027;-79
2024/01/26 11:48:13;;;;;;;3.17;1.30;;;;;;;;;;6341885;28;20142;-78
2024/01/26 11:51:14;;;;;;;2.58;1.38;;;;;;;;;;6337536;28;20024;-78
2024/01/26 11:54:15;;;;;;;2.20;1.20;;;;;;;;;;6334257;28;20027;-78
2024/01/26 11:57:16;;;;;;;3.17;1.53;;;;;;;;;;6330439;28;20023;-78
2024/01/26 12:00:16;;;;;;;3.22;1.25;;;;;;;;;;6329160;28;20460;-78
2024/01/26 12:03:17;;;;;;;4.07;1.37;;;;;;;;;;6306926;28;20028;-78
2024/01/26 12:06:17;;;;;;;3.47;1.50;;;;;;;;;;6332877;28;20048;-78
2024/01/26 12:09:18;;;;;;;2.72;1.40;;;;;;;;;;6337000;28;20487;-80
2024/01/26 12:12:18;;;;;;;2.70;1.03;;;;;;;;;;6332740;28;20475;-79
2024/01/26 12:15:19;;;;;;;2.30;1.37;;;;;;;;;;6339829;28;20019;-79
2024/01/26 12:18:19;;;;;;;2.43;1.30;;;;;;;;;;6333557;28;20024;-80
2024/01/26 12:21:19;;;;;;;3.77;1.50;;;;;;;;;;6324347;28;20123;-80
2024/01/26 12:24:21;;;;;;;3.20;1.53;;;;;;;;;;6344991;28;20416;-80
2024/01/26 12:27:22;;;;;;;2.05;1.45;;;;;;;;;;6315898;28;20032;-80
2024/01/26 12:30:22;;;;;;;2.20;1.33;;;;;;;;;;6335011;28;20132;-80
2024/01/26 12:33:23;;;;;;;2.73;1.23;;;;;;;;;;6307841;28;20465;-80
2024/01/26 12:36:28;;;;;;;2.13;1.20;;;;;;;;;;6318996;28;20023;-80
2024/01/26 12:39:28;;;;;;;1.75;1.20;;;;;;;;;;6341514;28;20035;-80
2024/01/26 12:42:28;;;;;;;1.70;0.90;;;;;;;;;;6343478;28;20023;-81
2024/01/26 12:45:29;;;;;;;2.17;1.20;;;;;;;;;;6322002;28;20375;-79
2024/01/26 12:48:30;;;;;;;1.27;0.70;;;;;;;;;;5979146;28;9999796;-82
2024/01/26 12:51:30;;;;;;;2.65;1.35;;;;;;;;;;6326721;28;20065;-83
2024/01/26 12:54:30;;;;;;;2.43;1.30;;;;;;;;;;6339335;28;20020;-82
2024/01/26 12:57:31;;;;;;;2.53;1.37;;;;;;;;;;6348320;28;20020;-82
2024/01/26 13:00:31;;;;;;;1.87;1.30;;;;;;;;;;6339177;28;20027;-82
2024/01/26 13:03:31;;;;;;;1.60;1.00;;;;;;;;;;6318425;28;20028;-81
2024/01/26 13:06:33;;;;;;;3.37;1.10;;;;;;;;;;6318740;28;20036;-82
2024/01/26 13:09:33;;;;;;;2.25;1.08;;;;;;;;;;6313806;28;20460;-82
2024/01/26 13:12:34;;;;;;;1.87;1.27;;;;;;;;;;6303536;28;20024;-82
2024/01/26 13:15:34;;;;;;;2.00;1.40;;;;;;;;;;6302991;28;20020;-83
2024/01/26 13:18:36;;;;;;;1.40;1.00;;;;;;;;;;6313800;28;20056;-80
2024/01/26 13:21:36;;;;;;;1.63;0.98;;;;;;;;;;6312185;28;20059;-82
2024/01/26 13:24:36;;;;;;;2.70;1.40;;;;;;;;;;6313439;28;20044;-82
2024/01/26 13:27:37;;;;;;;2.33;1.57;;;;;;;;;;6291506;28;20052;-82
2024/01/26 13:30:38;;;;;;;2.33;1.47;;;;;;;;;;6312419;28;20024;-81
2024/01/26 13:33:38;;;;;;;2.47;1.58;;;;;;;;;;6295239;28;20464;-81
2024/01/26 13:36:39;;;;;;;2.03;1.33;;;;;;;;;;6301084;28;20024;-83
2024/01/26 13:39:39;;;;;;;2.08;1.38;;;;;;;;;;6290946;28;20449;-83
2024/01/26 13:42:41;;;;;;;1.90;1.30;;;;;;;;;;6298113;28;20099;-84
2024/01/26 13:45:42;;;;;;;3.20;1.35;;;;;;;;;;6300962;28;20020;-84
2024/01/26 13:48:42;;;;;;;2.97;1.57;;;;;;;;;;6312567;28;20024;-82
2024/01/26 13:51:42;;;;;;;2.40;1.30;;;;;;;;;;6307874;28;20357;-83
2024/01/26 13:54:42;;;;;;;1.70;1.40;;;;;;;;;;6302211;28;20071;-83
2024/01/26 13:57:43;;;;;;;4.33;1.80;;;;;;;;;;6313335;28;20043;-82
2024/01/26 14:00:46;;;;;;;2.03;1.47;;;;;;;;;;6306908;28;20041;-84
2024/01/26 14:03:47;;;;;;;3.03;1.40;;;;;;;;;;6310875;28;20021;-79
2024/01/26 14:06:48;;;;;;;2.88;1.80;;;;;;;;;;6309902;28;20040;-83
2024/01/26 14:09:48;;;;;;;3.57;1.70;;;;;;;;;;6299120;28;20431;-84
2024/01/26 14:12:49;;;;;;;3.08;1.80;;;;;;;;;;6316132;28;20052;-84
2024/01/26 14:15:49;;;;;;;2.67;1.60;;;;;;;;;;6307043;28;20035;-84
2024/01/26 14:18:49;;;;;;;2.17;1.37;;;;;;;;;;6312922;28;20016;-86
2024/01/26 14:21:50;;;;;;;1.83;1.23;;;;;;;;;;6283562;28;20382;-84
2024/01/26 14:24:50;;;;;;;2.60;1.30;;;;;;;;;;6294948;28;20458;-84
2024/01/26 14:27:51;;;;;;;2.90;1.90;;;;;;;;;;6311288;28;20048;-84
2024/01/26 14:30:51;;;;;;;2.20;1.50;;;;;;;;;;6316669;28;20048;-82
2024/01/26 14:33:51;;;;;;;3.53;2.37;;;;;;;;;;6321899;28;20081;-84
2024/01/26 14:36:53;;;;;;;2.70;2.10;;;;;;;;;;6308444;28;20016;-82
2024/01/26 14:39:55;;;;;;;3.45;1.70;;;;;;;;;;6298367;28;20020;-83
2024/01/26 14:42:55;;;;;;;;;;;;;;;;;;6317701;28;20030;-84
2024/01/26 14:45:55;;;;;;;1.40;1.10;;;;;;;;;;6303767;28;19909;-84
2024/01/26 14:48:55;;;;;;;2.43;1.70;;;;;;;;;;6317432;28;20016;-84
2024/01/26 14:51:57;;;;;;;2.33;1.70;;;;;;;;;;6312489;28;20028;-84
2024/01/26 14:54:57;;;;;;;3.83;1.88;;;;;;;;;;6313471;28;20081;-85
2024/01/26 14:57:57;;;;;;;1.50;1.40;;;;;;;;;;6322088;28;20434;-84
2024/01/26 15:00:58;;;;;;;2.27;1.53;;;;;;;;;;6314769;28;20474;-83
2024/01/26 15:03:58;;;;;;;2.60;1.97;;;;;;;;;;6312964;28;20028;-84
2024/01/26 15:06:58;;;;;;;2.50;1.57;;;;;;;;;;6335635;28;20040;-83
2024/01/26 15:09:59;;;;;;;2.67;1.70;;;;;;;;;;6345150;28;20062;-83
2024/01/26 15:13:00;;;;;;;3.17;1.57;;;;;;;;;;6325128;28;20384;-84
2024/01/26 15:16:00;;;;;;;3.10;2.08;;;;;;;;;;6342493;28;20035;-80
2024/01/26 15:19:00;;;;;;;2.80;2.00;;;;;;;;;;6316268;28;20119;-80
2024/01/26 15:22:02;;;;;;;3.00;1.97;;;;;;;;;;6328276;28;20070;-80
2024/01/26 15:25:02;;;;;;;2.15;1.80;;;;;;;;;;6331568;28;20054;-80
2024/01/26 15:28:02;;;;;;;2.37;1.80;;;;;;;;;;6318292;28;20036;-80
2024/01/26 15:31:03;;;;;;;2.57;1.67;;;;;;;;;;6349302;28;20042;-81
2024/01/26 15:34:03;;;;;;;2.20;1.60;;;;;;;;;;6329779;28;20069;-80
2024/01/26 15:37:04;;;;;;;2.17;1.77;;;;;;;;;;6349430;28;20030;-80
2024/01/26 15:40:04;;;;;;;2.50;1.70;;;;;;;;;;6349976;28;20060;-80
2024/01/26 15:43:05;;;;;;;2.13;1.40;;;;;;;;;;6344235;28;20460;-80
2024/01/26 15:46:05;;;;;;;4.50;2.00;;;;;;;;;;6336136;28;20015;-81
2024/01/26 15:49:08;;;;;;;3.17;1.90;;;;;;;;;;6344472;28;20108;-83
2024/01/26 15:52:09;;;;;;;3.45;1.80;;;;;;;;;;6344947;28;20107;-80
2024/01/26 15:55:09;;;;;;;2.47;1.70;;;;;;;;;;6333315;28;20031;-80
2024/01/26 15:58:10;;;;;;;2.67;2.03;;;;;;;;;;6335667;28;20115;-81
2024/01/26 16:01:10;;;;;;;3.27;1.90;;;;;;;;;;6342129;28;20076;-80
2024/01/26 16:04:10;;;;;;;2.23;1.87;;;;;;;;;;6342474;28;20468;-81
2024/01/26 16:07:10;;;;;;;4.23;2.23;;;;;;;;;;6343220;28;20473;-79
2024/01/26 16:10:11;;;;;;;4.27;2.20;;;;;;;;;;6330742;28;20381;-84
2024/01/26 16:13:12;;;;;;;4.38;2.30;;;;;;;;;;6340431;28;20072;-81
2024/01/26 16:16:12;;;;;;;2.77;2.03;;;;;;;;;;6345512;28;20019;-81
2024/01/26 16:19:12;;;;;;;3.37;1.80;;;;;;;;;;6343893;28;20027;-80
2024/01/26 16:22:13;;;;;;;2.70;2.23;;;;;;;;;;6344335;28;20027;-83
2024/01/26 16:25:14;;;;;;;3.08;2.00;;;;;;;;;;6343981;28;20046;-81
2024/01/26 16:28:15;;;;;;;3.20;2.23;;;;;;;;;;6345320;28;20473;-81
2024/01/26 16:31:15;;;;;;;3.70;2.53;;;;;;;;;;6345212;28;20027;-82
2024/01/26 16:34:15;;;;;;;4.57;2.67;;;;;;;;;;6344685;28;20035;-82
2024/01/26 16:37:16;;;;;;;2.83;1.97;;;;;;;;;;6347953;28;20023;-81
2024/01/26 16:40:16;;;;;;;4.27;1.80;;;;;;;;;;6333919;28;20023;-81
2024/01/26 16:43:16;;;;;;;1.73;1.57;;;;;;;;;;6338781;28;20030;-82
2024/01/26 16:46:17;;;;;;;3.43;2.03;;;;;;;;;;6343255;28;20098;-81
2024/01/26 16:49:17;;;;;;;3.37;2.17;;;;;;;;;;6345895;28;20392;-81
2024/01/26 16:52:18;;;;;;;2.95;2.13;;;;;;;;;;6341320;27;20448;-81
2024/01/26 16:55:18;;;;;;;2.70;2.20;;;;;;;;;;6341996;28;20024;-81
2024/01/26 16:58:18;;;;;;;4.30;2.40;;;;;;;;;;6335366;28;20020;-81
2024/01/26 17:01:19;;;;;;;2.33;1.80;;;;;;;;;;6347338;28;20019;-81
2024/01/26 17:04:20;;;;;;;2.45;1.52;;;;;;;;;;6340438;28;20122;-81
2024/01/26 17:07:20;;;;;;;1.77;1.37;;;;;;;;;;6326634;28;20051;-81
2024/01/26 17:10:20;;;;;;;1.30;1.10;;;;;;;;;;6342185;28;20991;-81
2024/01/26 17:13:20;;;;;;;0.93;0.90;;;;;;;;;;6342199;28;20027;-81
2024/01/26 17:16:21;;;;;;;1.07;0.90;;;;;;;;;;6333106;28;20206;-82
2024/01/26 17:19:21;;;;;;;1.20;0.80;;;;;;;;;;6328243;28;20047;-82
2024/01/26 17:22:21;;;;;;;1.03;0.70;;;;;;;;;;6340621;28;20012;-82
2024/01/26 17:25:22;;;;;;;1.47;0.87;;;;;;;;;;6340601;28;20034;-81
2024/01/26 17:28:23;;;;;;;0.90;0.60;;;;;;;;;;6333318;28;20043;-83
2024/01/26 17:31:23;;;;;;;2.87;0.90;;;;;;;;;;6344450;28;20023;-82
2024/01/26 17:34:23;;;;;;;2.27;0.93;;;;;;;;;;6340923;28;20019;-82
2024/01/26 17:37:23;;;;;;;1.13;0.90;;;;;;;;;;6343751;28;20019;-81
2024/01/26 17:40:24;;;;;;;1.13;0.70;;;;;;;;;;6342743;28;20582;-82
2024/01/26 17:43:24;;;;;;;0.57;0.53;;;;;;;;;;6341711;28;20395;-78
2024/01/26 17:46:24;;;;;;;0.90;0.60;;;;;;;;;;6339944;28;20380;-79
2024/01/26 17:49:25;;;;;;;0.60;0.60;;;;;;;;;;6340173;28;20035;-77
2024/01/26 17:52:26;;;;;;;0.90;0.77;;;;;;;;;;6342682;28;20538;-78
2024/01/26 17:55:31;;;;;;;0.73;0.65;;;;;;;;;;6341074;28;20036;-80
2024/01/26 17:58:31;;;;;;;0.80;0.60;;;;;;;;;;6339906;28;20055;-81
2024/01/26 18:01:31;;;;;;;0.70;0.60;;;;;;;;;;6343139;28;20520;-80